Time;durP1;ratioP1;P1;durP2;ratioP2;P2;SDS_P1;SDS_P2;PMS_P1;PMS_P2;Temp;Humidity;BMP_temperature;BMP_pressure;BME280_temperature;BME280_humidity;BME280_pressure;Samples;Min_cycle;Max_cycle;Signal;HPM_P1;HPM_P2
2021/07/27 00:01:11;;;;;;;7.90;2.72;;;;;;;13.67;52.20;99686.22;6151546;23;20024;-76
2021/07/27 00:03:37;;;;;;;8.60;6.25;;;;;;;13.67;52.68;99678.16;6151971;23;20021;-76
2021/07/27 00:06:06;;;;;;;9.75;3.88;;;;;;;13.67;52.36;99679.03;6151896;23;20387;-75
2021/07/27 00:08:35;;;;;;;9.27;2.75;;;;;;;13.66;52.63;99680.00;6151759;23;20036;-77
2021/07/27 00:11:01;;;;;;;8.98;3.08;;;;;;;13.52;52.48;99656.19;6101565;23;20459;-75
2021/07/27 00:13:27;;;;;;;5.57;2.80;;;;;;;13.59;52.73;99678.84;6077313;23;20430;-76
2021/07/27 00:15:53;;;;;;;8.75;2.92;;;;;;;13.58;53.03;99677.16;6151614;23;20101;-77
2021/07/27 00:18:19;;;;;;;8.25;2.80;;;;;;;13.49;52.87;99673.41;6125662;23;20049;-76
2021/07/27 00:20:45;;;;;;;11.55;2.80;;;;;;;13.44;52.89;99674.81;6077509;23;20017;-76
2021/07/27 00:23:11;;;;;;;6.05;2.42;;;;;;;13.42;52.80;99676.75;6101394;23;20025;-75
2021/07/27 00:25:40;;;;;;;5.75;2.70;;;;;;;13.47;52.57;99677.22;6149720;22;20084;-75
2021/07/27 00:28:06;;;;;;;10.52;3.45;;;;;;;13.38;53.40;99676.16;6125431;23;20022;-76
2021/07/27 00:30:32;;;;;;;9.68;3.92;;;;;;;13.33;53.38;99681.09;6077113;23;20029;-76
2021/07/27 00:32:58;;;;;;;6.60;2.80;;;;;;;13.24;53.45;99674.69;6151377;23;20033;-74
2021/07/27 00:35:25;;;;;;;5.68;3.00;;;;;;;13.23;53.73;99682.81;6151164;23;20364;-75
2021/07/27 00:38:09;;;;;;;10.18;2.60;;;;;;;13.11;54.61;99690.09;6077146;23;20021;-76
2021/07/27 00:40:36;;;;;;;9.55;2.88;;;;;;;13.01;54.54;99678.44;6125544;23;20024;-77
2021/07/27 00:43:07;;;;;;;7.80;2.85;;;;;;;13.00;55.22;99679.41;6228582;22;20049;-76
2021/07/27 00:45:33;;;;;;;6.88;2.58;;;;;;;12.94;55.18;99682.63;6101680;23;20028;-76
2021/07/27 00:47:59;;;;;;;9.93;2.97;;;;;;;12.87;55.67;99680.47;6077275;23;20168;-76
2021/07/27 00:50:25;;;;;;;10.45;5.13;;;;;;;12.92;55.14;99684.59;6125555;23;20021;-76
2021/07/27 00:52:51;;;;;;;5.07;3.05;;;;;;;12.95;55.42;99676.28;6151301;23;20454;-77
2021/07/27 00:55:18;;;;;;;10.15;3.10;;;;;;;12.93;55.71;99675.56;6125278;23;20028;-77
2021/07/27 00:57:44;;;;;;;5.90;2.63;;;;;;;12.84;55.66;99672.66;6125215;23;20481;-78
2021/07/27 01:00:12;;;;;;;10.55;2.70;;;;;;;12.85;56.24;99669.00;6101540;23;20021;-75
2021/07/27 01:02:38;;;;;;;6.70;2.47;;;;;;;12.84;55.66;99664.63;6125680;23;20021;-76
2021/07/27 01:05:04;;;;;;;8.05;2.65;;;;;;;12.87;55.77;99674.25;6077322;23;20041;-76
2021/07/27 01:07:30;;;;;;;9.70;2.83;;;;;;;12.92;55.96;99668.50;6149492;23;20018;-75
2021/07/27 01:09:56;;;;;;;9.90;2.80;;;;;;;12.95;55.89;99673.59;6125269;23;20025;-75
2021/07/27 01:12:22;;;;;;;10.50;2.85;;;;;;;13.01;56.23;99670.38;6101312;23;20106;-75
2021/07/27 01:14:48;;;;;;;4.47;2.55;;;;;;;12.98;56.11;99673.34;6077110;23;20017;-75
2021/07/27 01:17:15;;;;;;;9.13;2.38;;;;;;;12.95;55.88;99670.91;6149709;23;20492;-75
2021/07/27 01:43:50;;;;;;;4.65;2.40;;;;;;;13.38;54.29;99665.44;6151430;23;20022;-76
2021/07/27 01:46:17;;;;;;;5.95;2.17;;;;;;;13.45;53.67;99668.44;6125440;23;20042;-77
2021/07/27 01:48:44;;;;;;;5.55;2.45;;;;;;;13.42;54.28;99668.69;6149522;23;20032;-76
2021/07/27 01:51:12;;;;;;;6.47;2.63;;;;;;;13.55;53.92;99661.28;6101031;23;20066;-77
2021/07/27 01:53:44;;;;;;;5.82;2.38;;;;;;;13.58;53.83;99652.97;6149549;23;20017;-76
2021/07/27 01:56:13;;;;;;;9.85;2.50;;;;;;;13.65;53.56;99662.16;6151048;23;20356;-76
2021/07/27 01:58:39;;;;;;;18.90;2.45;;;;;;;13.78;53.33;99657.44;6077320;23;20471;-77
2021/07/27 02:01:05;;;;;;;6.13;2.30;;;;;;;13.83;53.00;99654.31;6077795;23;20025;-79
2021/07/27 02:03:32;;;;;;;7.93;2.83;;;;;;;13.83;52.61;99649.81;6053885;23;20049;-77
2021/07/27 02:05:57;;;;;;;3.58;2.70;;;;;;;13.93;52.42;99651.69;6100560;23;20044;-78
2021/07/27 02:08:23;;;;;;;5.93;3.40;;;;;;;13.90;52.70;99643.91;6125464;23;20122;-76
2021/07/27 02:10:57;;;;;;;11.35;2.60;;;;;;;14.03;52.03;99652.56;6100717;23;20060;-75
2021/07/27 02:13:31;;;;;;;9.15;2.50;;;;;;;13.99;52.19;99643.94;6100863;23;20034;-76
2021/07/27 02:15:57;;;;;;;6.25;2.80;;;;;;;13.98;52.27;99650.28;6253496;22;20021;-76
2021/07/27 02:18:23;;;;;;;7.82;3.10;;;;;;;14.00;52.20;99642.09;6124647;23;20346;-77
2021/07/27 02:20:49;;;;;;;5.65;3.08;;;;;;;13.90;52.05;99644.75;6100569;23;20027;-76
2021/07/27 02:23:15;;;;;;;4.93;3.10;;;;;;;13.97;51.90;99647.75;6150878;23;20014;-76
2021/07/27 02:25:41;;;;;;;10.68;2.75;;;;;;;13.98;52.47;99641.38;6052320;23;20127;-77
2021/07/27 02:28:12;;;;;;;4.50;2.60;;;;;;;14.05;51.98;99648.75;6100768;23;20039;-76
2021/07/27 02:30:47;;;;;;;8.40;2.70;;;;;;;14.17;52.21;99646.78;6078521;23;20329;-76
2021/07/27 02:33:12;;;;;;;7.80;2.58;;;;;;;14.24;51.89;99652.47;6126233;23;20029;-76
2021/07/27 02:35:38;;;;;;;6.75;3.17;;;;;;;14.25;52.04;99643.41;6150858;23;20025;-77
2021/07/27 02:38:04;;;;;;;9.48;2.50;;;;;;;14.19;51.79;99631.38;6076696;23;20047;-76
2021/07/27 02:40:34;;;;;;;10.50;2.95;;;;;;;14.24;51.71;99629.13;6148750;23;20070;-77
2021/07/27 02:43:04;;;;;;;5.47;3.00;;;;;;;14.40;52.01;99636.63;6124756;23;20126;-78
2021/07/27 02:45:31;;;;;;;6.75;3.50;;;;;;;14.48;51.54;99630.53;6125036;23;20021;-76
2021/07/27 02:47:57;;;;;;;18.88;3.38;;;;;;;14.67;51.56;99632.44;6150564;23;20075;-76
2021/07/27 02:50:27;;;;;;;8.45;3.15;;;;;;;14.76;51.43;99631.59;6124615;23;20021;-77
2021/07/27 02:52:53;;;;;;;;;;;;;;;14.88;50.96;99634.97;6100406;23;20473;-76
2021/07/27 02:55:19;;;;;;;7.00;3.08;;;;;;;14.96;50.55;99627.03;6150209;23;19919;-77
2021/07/27 02:57:48;;;;;;;8.38;3.20;;;;;;;15.07;50.38;99626.88;6100702;23;20044;-76
2021/07/27 03:00:15;;;;;;;16.27;4.18;;;;;;;15.18;50.67;99637.47;6076746;23;20021;-76
2021/07/27 03:02:45;;;;;;;10.98;3.22;;;;;;;15.30;50.20;99628.22;6075976;23;20014;-78
2021/07/27 03:05:12;;;;;;;9.55;2.75;;;;;;;15.39;49.71;99628.38;6054335;23;20108;-76
2021/07/27 03:10:22;;;;;;;8.30;3.17;;;;;;;15.70;49.63;99626.28;6055100;23;20021;-79
2021/07/27 03:12:52;;;;;;;10.65;2.70;;;;;;;15.79;49.09;99625.38;6227434;23;20053;-77
2021/07/27 03:15:25;;;;;;;7.95;3.03;;;;;;;15.95;49.06;99619.38;6100311;23;20044;-77
2021/07/27 03:18:00;;;;;;;7.78;2.70;;;;;;;16.10;48.73;99617.84;6053068;23;20102;-78
2021/07/27 03:20:27;;;;;;;5.30;2.92;;;;;;;16.35;48.35;99620.81;6101407;23;20487;-78
2021/07/27 03:22:54;;;;;;;12.55;3.20;;;;;;;16.51;48.54;99615.56;6076399;23;20028;-79
2021/07/27 03:25:20;;;;;;;5.00;2.83;;;;;;;16.61;48.23;99610.94;6076605;23;20041;-78
2021/07/27 03:27:47;;;;;;;13.30;4.00;;;;;;;16.70;48.22;99615.44;6125250;23;20045;-85
2021/07/27 03:30:14;;;;;;;3.97;2.60;;;;;;;16.70;48.12;99615.44;6099968;23;20075;-78
2021/07/27 03:32:40;;;;;;;9.80;3.03;;;;;;;16.66;48.50;99608.66;6076631;23;20021;-75
2021/07/27 03:35:06;;;;;;;12.30;3.30;;;;;;;16.77;48.32;99621.06;6151507;23;20019;-74
2021/07/27 03:37:33;;;;;;;11.65;2.92;;;;;;;16.85;48.28;99617.56;6077576;23;20021;-75
2021/07/27 03:39:59;;;;;;;9.50;2.85;;;;;;;16.84;47.89;99605.94;6101424;23;20029;-77
2021/07/27 03:42:25;;;;;;;14.65;3.53;;;;;;;16.98;47.58;99618.03;6077799;23;20026;-75
2021/07/27 03:44:58;;;;;;;11.88;3.10;;;;;;;16.98;47.91;99605.38;6151971;23;20043;-75
2021/07/27 03:47:24;;;;;;;12.43;3.83;;;;;;;17.07;47.77;99608.13;6204254;23;20460;-76
2021/07/27 03:49:50;;;;;;;17.08;3.80;;;;;;;17.10;47.74;99605.13;6204286;23;20100;-74
2021/07/27 03:52:15;;;;;;;8.00;3.10;;;;;;;17.27;47.48;99598.00;6126059;23;20041;-76
2021/07/27 03:54:42;;;;;;;11.30;3.10;;;;;;;17.45;47.65;99605.03;6077589;23;20021;-73
2021/07/27 03:57:07;;;;;;;8.65;2.67;;;;;;;17.69;46.88;99608.84;6125528;23;20452;-76
2021/07/27 03:59:34;;;;;;;10.77;2.83;;;;;;;18.02;46.50;99606.31;6125768;23;20056;-75
2021/07/27 04:02:03;;;;;;;16.58;2.85;;;;;;;18.33;46.08;99596.56;6101796;23;20103;-75
2021/07/27 04:04:32;;;;;;;10.32;2.90;;;;;;;18.71;45.45;99601.56;6077959;23;20022;-76
2021/07/27 04:06:59;;;;;;;10.52;3.28;;;;;;;18.96;44.79;99588.88;6229746;22;20032;-75
2021/07/27 04:09:25;;;;;;;12.63;2.90;;;;;;;19.36;44.29;99596.91;6151527;23;20096;-75
2021/07/27 04:11:51;;;;;;;7.47;2.88;;;;;;;19.60;43.88;99598.72;6151880;23;20112;-75
2021/07/27 04:14:17;;;;;;;8.70;2.70;;;;;;;19.86;43.58;99589.50;6077214;23;20053;-75
2021/07/27 04:16:43;;;;;;;5.18;2.38;;;;;;;20.15;42.73;99591.53;6150934;23;20028;-74
2021/07/27 04:19:09;;;;;;;4.55;2.63;;;;;;;20.24;42.51;99589.66;6054241;23;20021;-74
2021/07/27 04:21:35;;;;;;;3.42;2.22;;;;;;;20.36;42.48;99582.78;6102400;23;20075;-74
2021/07/27 04:24:01;;;;;;;10.48;2.38;;;;;;;20.53;42.15;99578.09;6052847;23;20029;-74
2021/07/27 04:26:27;;;;;;;7.07;2.10;;;;;;;20.54;41.60;99575.22;6076223;23;20044;-74
2021/07/27 04:28:53;;;;;;;7.70;3.45;;;;;;;20.73;41.66;99567.59;6101374;23;20100;-75
2021/07/27 04:31:19;;;;;;;11.55;2.55;;;;;;;20.84;40.91;99562.56;6125488;23;20391;-76
2021/07/27 04:33:45;;;;;;;8.93;2.53;;;;;;;20.75;41.06;99555.50;6151591;23;20018;-74
2021/07/27 04:36:11;;;;;;;8.27;2.22;;;;;;;20.81;40.95;99552.06;6123570;23;20284;-75
2021/07/27 04:38:37;;;;;;;9.77;2.10;;;;;;;20.93;40.70;99560.59;6123065;23;20017;-74
2021/07/27 04:41:03;;;;;;;9.77;2.00;;;;;;;20.92;40.77;99561.66;6124952;23;20036;-74
2021/07/27 04:43:29;;;;;;;6.97;2.08;;;;;;;20.88;40.62;99554.06;6203294;23;20096;-73
2021/07/27 04:45:58;;;;;;;6.28;2.83;;;;;;;20.92;40.54;99550.78;6151101;23;20432;-74
2021/07/27 04:48:24;;;;;;;4.10;2.35;;;;;;;21.02;40.65;99551.34;6076932;23;20014;-75
2021/07/27 04:50:50;;;;;;;11.63;2.15;;;;;;;21.20;40.26;99550.16;6254405;22;20098;-75
2021/07/27 04:53:21;;;;;;;5.90;2.13;;;;;;;21.36;39.94;99549.16;6101076;23;20341;-73
2021/07/27 04:55:48;;;;;;;5.75;1.92;;;;;;;21.42;40.16;99542.97;6126731;23;20021;-75
2021/07/27 04:58:14;;;;;;;4.30;2.13;;;;;;;21.43;40.04;99542.78;6125902;23;20025;-75
2021/07/27 05:00:39;;;;;;;10.57;2.80;;;;;;;21.58;40.34;99540.88;6151360;23;20017;-75
2021/07/27 05:03:05;;;;;;;7.93;2.58;;;;;;;21.84;39.73;99542.28;6101096;23;20079;-74
2021/07/27 05:05:31;;;;;;;5.28;1.90;;;;;;;22.07;39.17;99529.34;6100927;23;20318;-76
2021/07/27 05:07:58;;;;;;;9.90;2.45;;;;;;;22.40;38.94;99533.50;6151744;23;20055;-74
2021/07/27 05:10:24;;;;;;;7.47;2.33;;;;;;;22.72;38.47;99537.56;6101157;23;20026;-75
2021/07/27 05:12:50;;;;;;;5.97;2.03;;;;;;;22.95;37.13;99510.94;6078060;23;20025;-74
2021/07/27 05:15:16;;;;;;;7.70;2.08;;;;;;;23.29;37.66;99527.53;6125617;23;20471;-77
2021/07/27 05:17:42;;;;;;;12.38;1.85;;;;;;;23.60;36.85;99513.44;6125709;23;20052;-75
2021/07/27 05:20:09;;;;;;;14.95;2.40;;;;;;;24.05;36.25;99511.94;6150255;23;20045;-74
2021/07/27 05:22:35;;;;;;;8.88;2.30;;;;;;;24.25;35.76;99501.06;6203452;23;20029;-75
2021/07/27 05:25:02;;;;;;;7.95;2.25;;;;;;;24.44;35.59;99504.88;6125207;23;20021;-75
2021/07/27 05:27:31;;;;;;;10.20;2.50;;;;;;;24.43;35.35;99498.59;6077257;23;20017;-74
2021/07/27 05:29:57;;;;;;;7.57;2.50;;;;;;;24.60;35.46;99490.00;6079182;23;20021;-75
2021/07/27 05:32:23;;;;;;;10.50;2.13;;;;;;;24.67;35.17;99491.69;6125408;23;20018;-75
2021/07/27 05:34:49;;;;;;;9.15;1.75;;;;;;;24.66;35.09;99491.88;6101319;23;20075;-75
2021/07/27 05:37:15;;;;;;;8.80;2.35;;;;;;;24.89;34.70;99495.00;6125191;23;20075;-76
2021/07/27 05:39:41;;;;;;;6.32;3.35;;;;;;;25.24;33.95;99492.06;6101188;23;20028;-73
2021/07/27 05:42:07;;;;;;;11.60;2.03;;;;;;;25.61;34.16;99484.13;6150989;23;20059;-75
2021/07/27 05:44:33;;;;;;;9.35;2.20;;;;;;;25.98;33.82;99478.94;6150928;23;20445;-76
2021/07/27 05:47:00;;;;;;;4.15;2.10;;;;;;;26.25;33.01;99480.44;6101600;23;20018;-75
2021/07/27 05:49:26;;;;;;;12.05;2.50;;;;;;;26.61;32.86;99463.31;6149728;23;20021;-74
2021/07/27 05:51:52;;;;;;;7.13;1.90;;;;;;;26.96;32.10;99467.44;6101054;23;20027;-74
2021/07/27 05:54:19;;;;;;;5.60;1.95;;;;;;;26.91;31.78;99468.13;6254336;22;20025;-76
2021/07/27 05:56:48;;;;;;;6.40;2.72;;;;;;;26.68;31.80;99474.25;6053223;23;20353;-74
2021/07/27 05:59:15;;;;;;;7.85;2.15;;;;;;;26.16;31.84;99479.03;6125183;23;20125;-74
2021/07/27 06:01:41;;;;;;;5.22;1.75;;;;;;;26.00;31.16;99474.91;6077275;23;20049;-75
2021/07/27 06:04:08;;;;;;;9.73;1.95;;;;;;;25.88;30.65;99477.50;6077075;23;20040;-75
2021/07/27 06:06:34;;;;;;;5.05;2.30;;;;;;;25.75;30.79;99468.50;6076703;23;20018;-75
2021/07/27 06:09:03;;;;;;;11.43;2.30;;;;;;;25.31;30.82;99473.72;6151380;23;20017;-74
2021/07/27 06:11:30;;;;;;;9.93;2.38;;;;;;;25.15;31.30;99474.19;6101746;23;20024;-75
2021/07/27 06:14:00;;;;;;;4.97;2.38;;;;;;;25.00;31.14;99476.28;6227781;22;20022;-75
2021/07/27 06:16:26;;;;;;;7.35;2.10;;;;;;;24.86;31.26;99481.78;6125558;23;20021;-76
2021/07/27 06:18:52;;;;;;;16.45;2.20;;;;;;;24.43;31.91;99473.16;6125630;23;20033;-76
2021/07/27 06:21:19;;;;;;;2.15;1.92;;;;;;;24.27;32.34;99471.66;6124489;23;20358;-75
2021/07/27 06:23:46;;;;;;;5.43;2.50;;;;;;;24.21;32.48;99462.38;6101004;23;20096;-75
2021/07/27 06:26:20;;;;;;;6.30;1.98;;;;;;;24.26;32.62;99448.13;6101016;23;20021;-76
2021/07/27 06:28:46;;;;;;;15.45;2.58;;;;;;;24.29;32.53;99447.69;6077510;23;20108;-75
2021/07/27 06:31:12;;;;;;;5.63;1.90;;;;;;;24.38;32.49;99440.13;6101125;23;20505;-75
2021/07/27 06:33:39;;;;;;;3.25;2.08;;;;;;;24.36;32.22;99426.66;6125412;23;20021;-74
2021/07/27 06:36:05;;;;;;;7.53;2.35;;;;;;;24.44;32.42;99444.78;6100913;23;20056;-75
2021/07/27 06:38:31;;;;;;;4.70;1.95;;;;;;;24.60;32.55;99449.84;6100703;23;20046;-74
2021/07/27 06:40:57;;;;;;;3.65;2.70;;;;;;;24.33;31.92;99443.47;6100660;23;20014;-75
2021/07/27 06:43:23;;;;;;;5.30;2.50;;;;;;;24.51;31.26;99418.28;6124822;23;20017;-75
2021/07/27 06:45:56;;;;;;;6.03;2.05;;;;;;;24.71;31.25;99429.19;6100892;23;20021;-75
2021/07/27 06:48:22;;;;;;;10.55;2.50;;;;;;;24.95;30.95;99431.28;6077181;23;20031;-76
2021/07/27 06:50:48;;;;;;;9.20;2.53;;;;;;;24.61;31.02;99420.63;6124389;23;20457;-74
2021/07/27 06:53:14;;;;;;;7.60;2.50;;;;;;;24.66;31.09;99426.28;6100382;23;20496;-76
2021/07/27 06:55:40;;;;;;;7.25;2.33;;;;;;;24.60;30.32;99416.22;6151317;23;20021;-76
2021/07/27 06:58:06;;;;;;;13.73;2.70;;;;;;;24.66;30.48;99421.66;6100854;23;20044;-76
2021/07/27 07:00:32;;;;;;;7.18;2.58;;;;;;;24.81;30.54;99424.16;6125313;23;20111;-76
2021/07/27 07:02:58;;;;;;;14.82;2.60;;;;;;;25.04;30.04;99411.91;6100179;23;20112;-76
2021/07/27 07:05:24;;;;;;;12.85;2.55;;;;;;;25.17;29.79;99428.31;6076916;23;20022;-75
2021/07/27 07:07:49;;;;;;;5.97;2.63;;;;;;;25.06;29.88;99398.84;6101001;23;20087;-76
2021/07/27 07:10:15;;;;;;;7.72;2.70;;;;;;;24.94;30.29;99410.47;6126322;23;20028;-76
2021/07/27 07:12:41;;;;;;;7.00;2.47;;;;;;;25.01;30.07;99406.84;6102274;23;20455;-76
2021/07/27 07:15:08;;;;;;;6.75;2.50;;;;;;;24.92;29.81;99419.91;6126184;23;20021;-77
2021/07/27 07:17:34;;;;;;;8.50;2.58;;;;;;;24.71;30.55;99396.41;6102135;23;20025;-76
2021/07/27 07:20:00;;;;;;;8.07;2.55;;;;;;;24.89;30.25;99393.84;6151044;23;20336;-76
2021/07/27 07:22:29;;;;;;;5.75;2.70;;;;;;;24.83;30.00;99411.13;6125057;23;20017;-76
2021/07/27 07:24:55;;;;;;;;;;;;;;;24.70;30.50;99389.25;6152055;22;20083;-76
2021/07/27 07:27:21;;;;;;;10.10;2.78;;;;;;;25.10;30.67;99394.66;6150992;23;20350;-76
2021/07/27 07:29:52;;;;;;;6.25;2.67;;;;;;;25.61;29.94;99364.53;6126055;23;20143;-77
2021/07/27 07:32:18;;;;;;;5.00;2.15;;;;;;;25.95;29.43;99373.38;6054255;23;20405;-75
2021/07/27 07:34:44;;;;;;;15.63;2.60;;;;;;;25.86;29.05;99374.72;6179450;23;20025;-76
2021/07/27 07:37:11;;;;;;;5.25;2.33;;;;;;;26.29;28.69;99366.59;6101314;23;20108;-76
2021/07/27 07:39:37;;;;;;;7.63;2.40;;;;;;;26.58;28.42;99370.56;6101357;23;20079;-76
2021/07/27 07:42:06;;;;;;;5.30;2.08;;;;;;;26.72;28.66;99373.16;6151643;23;20021;-77
2021/07/27 07:44:33;;;;;;;8.43;2.30;;;;;;;26.56;29.11;99377.34;6102152;23;20022;-76
2021/07/27 07:46:59;;;;;;;13.57;2.70;;;;;;;26.59;28.12;99382.34;6125337;23;20017;-77
2021/07/27 07:49:25;;;;;;;2.65;1.90;;;;;;;26.04;28.78;99369.31;6125500;23;20024;-77
2021/07/27 07:51:51;;;;;;;7.72;2.20;;;;;;;26.49;28.78;99360.13;6077506;23;20037;-76
2021/07/27 07:54:18;;;;;;;5.95;2.30;;;;;;;26.99;28.03;99355.34;6102205;23;20090;-77
2021/07/27 07:56:44;;;;;;;5.13;2.22;;;;;;;27.19;28.20;99357.88;6126605;23;20106;-76
2021/07/27 07:59:10;;;;;;;4.47;2.10;;;;;;;26.93;28.41;99355.41;6151957;23;20079;-77
2021/07/27 08:01:36;;;;;;;7.63;2.30;;;;;;;26.67;28.52;99362.91;6101783;23;20096;-76
2021/07/27 08:04:02;;;;;;;7.70;2.28;;;;;;;26.20;29.13;99373.41;6077696;23;20589;-77
2021/07/27 08:06:30;;;;;;;12.90;2.45;;;;;;;25.78;30.03;99367.63;6101456;23;20018;-77
2021/07/27 08:08:56;;;;;;;9.77;2.53;;;;;;;25.78;29.98;99350.31;6101975;23;20025;-76
2021/07/27 08:11:23;;;;;;;7.70;2.47;;;;;;;26.13;29.81;99353.44;6101678;23;20464;-77
2021/07/27 08:13:52;;;;;;;7.20;2.20;;;;;;;26.43;29.52;99355.50;6151783;23;20028;-75
2021/07/27 08:16:18;;;;;;;8.10;2.40;;;;;;;26.67;28.87;99353.81;6102229;23;20017;-76
2021/07/27 08:18:44;;;;;;;5.38;2.38;;;;;;;26.74;28.39;99346.34;6101279;23;20040;-77
2021/07/27 08:21:10;;;;;;;8.70;2.30;;;;;;;27.16;28.41;99355.59;6151910;23;20025;-76
2021/07/27 08:23:40;;;;;;;3.25;1.92;;;;;;;27.02;27.43;99360.38;6126152;23;20349;-76
2021/07/27 08:26:06;;;;;;;6.47;2.05;;;;;;;26.82;28.18;99357.88;6151428;23;20021;-77
2021/07/27 08:28:32;;;;;;;13.15;2.50;;;;;;;26.63;28.06;99350.69;6151778;22;20079;-77
2021/07/27 08:30:57;;;;;;;2.35;1.98;;;;;;;26.71;28.03;99364.13;6151191;23;20393;-76
2021/07/27 08:33:26;;;;;;;11.10;2.03;;;;;;;26.59;28.17;99357.69;6151948;22;20441;-77
2021/07/27 08:35:52;;;;;;;11.45;2.45;;;;;;;26.74;28.27;99332.63;6125689;23;20032;-77
2021/07/27 08:38:18;;;;;;;3.05;2.00;;;;;;;26.82;28.31;99333.19;6125908;23;20028;-77
2021/07/27 08:40:46;;;;;;;3.97;2.20;;;;;;;27.06;27.46;99333.31;6077654;23;20022;-77
2021/07/27 08:43:12;;;;;;;4.07;2.00;;;;;;;27.09;26.77;99330.97;6101477;23;20032;-76
2021/07/27 08:45:38;;;;;;;9.00;2.30;;;;;;;27.29;27.15;99352.69;6077424;23;20021;-77
2021/07/27 08:48:04;;;;;;;5.78;2.53;;;;;;;26.98;27.48;99320.75;6077540;23;20018;-76
2021/07/27 08:50:30;;;;;;;6.35;2.10;;;;;;;26.79;27.48;99316.34;6150944;23;20326;-76
2021/07/27 08:52:56;;;;;;;10.05;2.72;;;;;;;26.93;27.52;99322.50;6077623;23;20025;-75
2021/07/27 08:55:22;;;;;;;5.32;2.15;;;;;;;26.80;27.80;99334.47;6101419;23;20028;-76
2021/07/27 08:57:55;;;;;;;5.90;1.98;;;;;;;26.69;27.75;99311.38;6101280;23;20053;-76
2021/07/27 09:00:21;;;;;;;8.35;2.40;;;;;;;26.81;27.85;99320.53;6149951;23;20334;-77
2021/07/27 09:02:47;;;;;;;16.08;2.20;;;;;;;26.80;28.12;99313.38;6076817;23;20104;-76
2021/07/27 09:05:13;;;;;;;4.70;2.05;;;;;;;26.83;27.72;99318.41;6254372;22;20413;-77
2021/07/27 09:07:40;;;;;;;5.15;2.08;;;;;;;26.87;27.03;99324.28;6124922;23;20028;-76
2021/07/27 09:10:22;;;;;;;2.25;2.05;;;;;;;27.18;27.00;99320.53;6125250;23;20018;-76
2021/07/27 09:13:01;;;;;;;10.23;2.40;;;;;;;27.51;26.72;99313.75;6053025;23;20022;-77
2021/07/27 09:15:28;;;;;;;10.48;2.22;;;;;;;28.07;26.13;99323.47;6125822;23;20075;-76
2021/07/27 09:18:05;;;;;;;5.93;2.47;;;;;;;28.14;25.62;99307.69;6125189;23;20464;-76
2021/07/27 09:20:35;;;;;;;5.72;2.30;;;;;;;27.77;25.71;99321.63;6102550;23;20025;-76
2021/07/27 09:23:05;;;;;;;7.15;2.03;;;;;;;27.78;25.74;99309.53;6230637;22;20041;-75
2021/07/27 09:25:32;;;;;;;6.28;2.20;;;;;;;28.00;25.30;99303.50;6119982;23;20372;-76
2021/07/27 09:28:02;;;;;;;6.00;1.98;;;;;;;27.96;25.52;99307.78;6096086;23;20041;-75
2021/07/27 09:30:29;;;;;;;3.88;2.03;;;;;;;28.15;25.26;99306.63;6119712;23;20030;-76
2021/07/27 09:32:56;;;;;;;5.97;2.33;;;;;;;28.46;24.77;99299.94;6120278;23;20022;-77
2021/07/27 09:35:22;;;;;;;2.30;1.90;;;;;;;28.45;25.06;99290.03;6096077;23;20033;-77
2021/07/27 09:38:04;;;;;;;4.80;2.03;;;;;;;28.29;24.82;99302.56;6072576;23;20017;-77
2021/07/27 09:40:30;;;;;;;4.50;2.38;;;;;;;27.93;25.52;99300.03;6120494;23;20448;-76
2021/07/27 09:42:56;;;;;;;2.63;1.80;;;;;;;28.11;25.71;99290.84;6096412;23;20030;-76
2021/07/27 09:45:24;;;;;;;3.85;1.90;;;;;;;28.63;25.00;99272.56;6120450;23;20544;-76
2021/07/27 09:47:50;;;;;;;6.88;2.40;;;;;;;29.05;24.77;99286.09;6096320;23;20022;-75
2021/07/27 09:50:16;;;;;;;2.90;2.10;;;;;;;29.21;24.29;99277.06;6072107;23;20030;-76
2021/07/27 09:52:43;;;;;;;8.68;2.30;;;;;;;29.69;24.09;99270.25;6120465;23;20014;-75
2021/07/27 09:55:13;;;;;;;8.75;2.30;;;;;;;29.69;23.19;99278.53;6096954;23;20089;-75
2021/07/27 09:57:39;;;;;;;5.45;1.98;;;;;;;29.86;23.33;99269.41;6096324;23;20389;-75
2021/07/27 10:00:06;;;;;;;12.98;2.53;;;;;;;30.22;23.23;99263.41;6120341;23;20476;-74
2021/07/27 10:02:34;;;;;;;11.63;2.25;;;;;;;30.37;22.40;99270.25;6120097;23;20532;-76
2021/07/27 10:05:00;;;;;;;8.98;2.40;;;;;;;30.68;22.12;99246.66;6120270;23;20018;-77
2021/07/27 10:07:29;;;;;;;6.72;2.25;;;;;;;30.59;21.91;99267.53;6072053;23;20028;-75
2021/07/27 10:10:09;;;;;;;8.23;2.20;;;;;;;30.33;22.45;99260.81;6119635;23;20022;-75
2021/07/27 10:12:35;;;;;;;5.30;2.10;;;;;;;30.67;22.24;99259.63;6120178;23;20014;-75
2021/07/27 10:15:12;;;;;;;8.27;2.47;;;;;;;30.05;22.57;99242.44;6071639;23;20026;-75
2021/07/27 10:17:49;;;;;;;7.43;2.35;;;;;;;29.57;23.19;99241.94;6120319;23;20029;-76
2021/07/27 10:20:25;;;;;;;5.72;2.17;;;;;;;29.81;22.54;99241.78;6096421;23;20025;-76
2021/07/27 10:22:51;;;;;;;6.82;2.47;;;;;;;30.68;22.00;99217.13;6048789;23;20026;-75
2021/07/27 10:25:17;;;;;;;5.18;2.10;;;;;;;30.92;20.95;99225.19;6071438;23;20465;-75
2021/07/27 10:27:50;;;;;;;5.32;2.40;;;;;;;30.18;22.37;99240.19;6096059;23;20041;-75
2021/07/27 10:30:16;;;;;;;13.55;2.50;;;;;;;30.13;22.35;99234.59;6120356;23;20108;-75
2021/07/27 10:32:55;;;;;;;5.45;2.10;;;;;;;29.58;22.84;99218.00;6095238;23;20113;-76
2021/07/27 10:35:27;;;;;;;;;;;;;;;29.72;23.01;99230.38;6072982;23;20013;-75
2021/07/27 10:38:14;;;;;;;6.28;2.30;;;;;;;29.64;23.08;99220.59;6120010;23;19917;-74
2021/07/27 10:40:43;;;;;;;7.07;2.60;;;;;;;29.76;22.66;99226.03;6051395;23;20040;-75
2021/07/27 10:43:09;;;;;;;5.28;2.60;;;;;;;29.10;23.22;99227.56;6096226;23;20025;-76
2021/07/27 10:45:35;;;;;;;10.20;2.35;;;;;;;28.52;23.56;99222.00;6120360;23;20025;-74
2021/07/27 10:48:01;;;;;;;10.23;2.55;;;;;;;28.97;23.43;99212.16;6120714;23;20349;-75
2021/07/27 10:50:32;;;;;;;3.88;2.00;;;;;;;29.86;22.60;99203.28;6119964;23;20065;-75
2021/07/27 10:53:12;;;;;;;11.18;2.53;;;;;;;29.63;22.77;99210.63;6095787;23;20017;-75
2021/07/27 10:55:42;;;;;;;6.28;2.28;;;;;;;29.67;22.88;99211.81;6096613;23;20096;-75
2021/07/27 10:58:16;;;;;;;9.45;2.40;;;;;;;29.05;23.58;99198.03;6096472;23;20400;-74
2021/07/27 11:00:42;;;;;;;6.88;2.70;;;;;;;29.42;23.32;99192.94;6095877;23;20025;-75
2021/07/27 11:03:11;;;;;;;4.22;2.25;;;;;;;29.39;23.24;99209.09;6120214;23;20018;-74
2021/07/27 11:05:37;;;;;;;7.75;2.28;;;;;;;29.12;23.47;99189.63;6119708;23;20024;-75
2021/07/27 11:08:03;;;;;;;10.10;2.20;;;;;;;29.09;23.90;99193.72;6119841;23;20105;-76
2021/07/27 11:10:30;;;;;;;6.22;2.30;;;;;;;29.14;23.72;99192.97;6120113;23;20368;-75
2021/07/27 11:12:58;;;;;;;7.57;2.40;;;;;;;29.02;23.75;99199.34;6072258;23;20471;-76
2021/07/27 11:15:27;;;;;;;6.85;2.50;;;;;;;29.60;23.59;99186.38;6121210;23;20071;-76
2021/07/27 11:17:57;;;;;;;6.95;2.22;;;;;;;30.27;22.76;99181.84;6121217;23;20033;-75
2021/07/27 11:20:25;;;;;;;9.10;2.35;;;;;;;30.24;22.63;99178.53;6173280;23;20022;-75
2021/07/27 11:22:56;;;;;;;9.57;2.42;;;;;;;29.70;22.82;99183.75;6197213;23;20018;-74
2021/07/27 11:25:23;;;;;;;8.80;2.30;;;;;;;29.23;23.41;99173.06;6071665;23;20018;-75
2021/07/27 11:27:49;;;;;;;4.95;2.15;;;;;;;29.33;23.59;99177.06;6096663;23;20082;-75
2021/07/27 11:30:16;;;;;;;7.10;2.53;;;;;;;29.09;23.74;99170.84;6095816;23;20148;-75
2021/07/27 11:32:46;;;;;;;7.63;2.60;;;;;;;28.93;24.08;99172.47;6119397;23;20022;-76
2021/07/27 11:35:17;;;;;;;7.53;2.00;;;;;;;29.24;23.78;99162.88;6072190;23;20058;-76
2021/07/27 11:37:44;;;;;;;8.25;2.38;;;;;;;29.56;23.56;99160.34;6072022;23;20022;-77
2021/07/27 11:40:25;;;;;;;8.68;2.22;;;;;;;29.36;23.77;99160.03;6119281;23;20077;-76
2021/07/27 11:43:05;;;;;;;8.63;2.33;;;;;;;29.43;23.55;99150.53;6071142;23;20025;-76
2021/07/27 11:45:41;;;;;;;7.43;2.30;;;;;;;29.66;23.05;99155.06;6223839;22;20025;-75
2021/07/27 11:48:07;;;;;;;7.53;2.40;;;;;;;29.40;23.04;99163.97;6095036;23;20018;-75
2021/07/27 11:50:35;;;;;;;9.75;2.05;;;;;;;30.21;22.58;99143.19;6119244;23;20026;-76
2021/07/27 11:53:02;;;;;;;9.05;2.33;;;;;;;31.52;20.87;99144.06;6071591;23;20105;-76
2021/07/27 11:55:40;;;;;;;5.70;2.35;;;;;;;32.44;19.93;99147.41;6096679;23;20076;-75
2021/07/27 11:58:07;;;;;;;;;;;;;;;32.50;19.60;99138.03;6097072;23;20449;-74
2021/07/27 12:00:34;;;;;;;5.75;2.53;;;;;;;31.81;20.36;99138.16;6122377;23;19935;-74